Terminal Aerodrome Forecast
Issued by NWS

Home | Current Version | Previous Version | Graphics & Text | Print | Product List | Glossary On
Versions: 1 2 3 4 5 6 7 8 9 10 11 12 13 14 15 16
540
FTUS43 KIWX 051130
TAFSBN
TAF
KSBN 051130Z 0512/0612 21005KT P6SM SCT050 BKN100
     FM051600 27008KT P6SM BKN030
     FM052200 28006KT P6SM OVC050=

USA.gov is the U.S. government's official web portal to all federal, state and local government web resources and services.